Seana C — WDJ3319 — position and weather

sailwx.info

Track history (hours):
 
Tides and Currents Weather Stations Pressure Air Temp Water Temp Dewpoint Dewpoint Depression Visibility Wind Speed Wind Dir Waves Ship Positions

Seana C

Owner: Curtin Maritime Corp, long beach, CA. More information available from US FCC via Universal Licensing System and Coast Guard Vessel Documentation Center.

Last reported at 2017-Sep-19 16:29 UTC. Time now 2017-Sep-19 16:48 UTC.
Position N 33°46' W 118°13'.

Length 21 m; draft 3 m.

Type: Tug. MMSI: 367766860.

Date/timePositionNaut miles runAvg speedWind from/ knotsBaromVisibWave heightAir tempDewpointWater temp
2017-Sep-19 16:29N 33°46' W 118°13'0 0.0
2017-Sep-19 16:00N 33°46' W 118°13'3 6.8
2017-Sep-19 15:30N 33°43' W 118°14'5 9.1
2017-Sep-19 15:00N 33°41' W 118°19'21 9.5
2017-Sep-19 12:46N 33°51' W 118°42'3 9.2
2017-Sep-19 12:29N 33°52' W 118°45'4 9.2
2017-Sep-19 12:00N 33°54' W 118°49'5 9.2
2017-Sep-19 11:30N 33°56' W 118°54'5 9.1
2017-Sep-19 11:01N 33°58' W 118°59'5 9.4
2017-Sep-19 10:31N 34°01' W 119°04'5 9.5
2017-Sep-19 10:00N 34°03' W 119°09'5 9.9
2017-Sep-19 09:31N 34°05' W 119°14'5 9.7
2017-Sep-19 09:00N 34°07' W 119°20'510.3
2017-Sep-19 08:29N 34°09' W 119°26'510.0
2017-Sep-19 08:00N 34°10' W 119°32'5 9.5
2017-Sep-19 07:31N 34°12' W 119°37'5 9.1
2017-Sep-19 07:00N 34°14' W 119°42'4 8.8
2017-Sep-19 06:30N 34°15' W 119°47'5 9.1
2017-Sep-19 05:59N 34°17' W 119°52'4 9.1
2017-Sep-19 05:30N 34°19' W 119°57'5 9.1
2017-Sep-19 05:00N 34°20' W 120°02'5 9.1
2017-Sep-19 04:30N 34°21' W 120°08'4 6.5
2017-Sep-19 03:57N 34°22' W 120°12'3 5.7
2017-Sep-19 03:30N 34°23' W 120°15'2 4.5
2017-Sep-19 03:00N 34°24' W 120°17'2 5.0
2017-Sep-19 02:30N 34°22' W 120°15'4 7.6
2017-Sep-19 01:59N 34°20' W 120°11'4 8.3
2017-Sep-19 01:30N 34°19' W 120°07'4 8.1
2017-Sep-19 01:00N 34°17' W 120°02'5 8.9
2017-Sep-19 00:26N 34°16' W 119°56'4 9.2
2017-Sep-19 00:00N 34°15' W 119°52'5 9.1
2017-Sep-18 23:28N 34°14' W 119°46'4 9.6
2017-Sep-18 23:01N 34°12' W 119°41'5 9.3
2017-Sep-18 22:31N 34°11' W 119°35'5 8.9
2017-Sep-18 21:58N 34°10' W 119°30'4 8.8
2017-Sep-18 21:28N 34°09' W 119°25'4 8.6
2017-Sep-18 21:00N 34°07' W 119°20'5 8.9
2017-Sep-18 20:28N 34°05' W 119°15'4 9.0
2017-Sep-18 20:01N 34°03' W 119°10'5 9.0
2017-Sep-18 19:30N 34°01' W 119°06'4 9.2
2017-Sep-18 19:01N 33°59' W 119°01'5 9.2
2017-Sep-18 18:30N 33°57' W 118°56'5 9.3
2017-Sep-18 18:01N 33°55' W 118°51'5 9.4
2017-Sep-18 17:30N 33°53' W 118°46'5 9.4
2017-Sep-18 16:57N 33°50' W 118°40'18 9.1
2017-Sep-18 14:59N 33°42' W 118°21'4 8.5
2017-Sep-18 14:29N 33°42' W 118°16'5 0.5
2017-Sep-18 03:54N 33°46' W 118°13'0 0.0
2017-Sep-18 03:11N 33°46' W 118°13'0 0.0
2017-Sep-18 02:49N 33°46' W 118°13'0 0.0
2017-Sep-18 00:48N 33°46' W 118°13'0 0.0
2017-Sep-18 00:19N 33°46' W 118°13'0 0.0
2017-Sep-17 23:51N 33°46' W 118°13'0 0.0
2017-Sep-17 23:28N 33°46' W 118°13'0 0.0
2017-Sep-17 22:58N 33°46' W 118°13'0 0.0
2017-Sep-17 22:12N 33°46' W 118°13'0 0.0
2017-Sep-17 21:48N 33°46' W 118°13'0 0.0
2017-Sep-17 21:27N 33°46' W 118°13'0 0.0
2017-Sep-17 21:00N 33°46' W 118°13'0 0.0
2017-Sep-17 20:11N 33°46' W 118°13'0 0.0
2017-Sep-17 19:57N 33°46' W 118°13'0 0.0
2017-Sep-17 18:58N 33°46' W 118°13'2 4.8
2017-Sep-17 18:30N 33°44' W 118°13'3 1.7
2017-Sep-17 16:58N 33°44' W 118°16'2 4.2
2017-Sep-17 16:30N 33°43' W 118°14'3 6.2
2017-Sep-17 15:58N 33°46' W 118°13'0 0.0
2017-Sep-15 14:18N 33°46' W 118°13'0 0.0
2017-Sep-15 13:59N 33°46' W 118°13'0 0.1
2017-Sep-15 13:30N 33°46' W 118°13'0 0.0
2017-Sep-15 12:59N 33°46' W 118°13'0 0.0
2017-Sep-15 12:29N 33°46' W 118°13'0 0.0
2017-Sep-15 11:59N 33°46' W 118°13'0 0.0
2017-Sep-15 11:29N 33°46' W 118°13'0 0.0
2017-Sep-15 11:00N 33°46' W 118°13'0 0.0
2017-Sep-15 10:30N 33°46' W 118°13'0 0.0
2017-Sep-15 10:00N 33°46' W 118°13'0 0.0
2017-Sep-15 09:30N 33°46' W 118°13'0 0.0
2017-Sep-15 09:00N 33°46' W 118°13'0 0.0
2017-Sep-15 08:30N 33°46' W 118°13'0 0.0
2017-Sep-15 08:00N 33°46' W 118°13'0 0.0
2017-Sep-15 07:30N 33°46' W 118°13'0 0.1
2017-Sep-15 07:00N 33°46' W 118°13'0 0.1
2017-Sep-15 06:30N 33°46' W 118°13'0 0.0
2017-Sep-15 06:00N 33°46' W 118°13'0 0.0
2017-Sep-15 05:30N 33°46' W 118°13'0 0.0
2017-Sep-15 05:00N 33°46' W 118°13'0 0.0
2017-Sep-15 04:22N 33°46' W 118°13'0 0.0
2017-Sep-15 01:30N 33°46' W 118°13'0 0.1
2017-Sep-15 01:00N 33°46' W 118°13'0 0.0
2017-Sep-15 00:30N 33°46' W 118°13'0 0.1
2017-Sep-15 00:00N 33°46' W 118°13'0 0.1
2017-Sep-14 23:30N 33°46' W 118°13'0 0.3
2017-Sep-14 23:00N 33°46' W 118°13'1 1.6
2017-Sep-14 22:30N 33°46' W 118°13'2 4.8
2017-Sep-14 22:00N 33°43' W 118°14'3 6.5
2017-Sep-14 21:30N 33°41' W 118°16'23 7.4
2017-Sep-14 18:25N 33°50' W 118°41'4 7.4
2017-Sep-14 17:56N 33°52' W 118°45'3 7.2
2017-Sep-14 17:30N 33°53' W 118°48'4 7.4
2017-Sep-14 17:00N 33°55' W 118°52'4 7.5
2017-Sep-14 16:30N 33°57' W 118°56'4 7.8
2017-Sep-14 16:00N 33°58' W 119°01'4 7.7
2017-Sep-14 15:30N 34°00' W 119°05'4 7.4
2017-Sep-14 15:00N 34°02' W 119°09'4 7.3
2017-Sep-14 14:30N 34°04' W 119°12'5 5.1
2017-Sep-14 13:29N 34°09' W 119°12'0 0.2
2017-Sep-14 12:08N 34°09' W 119°13'0 0.0
2017-Sep-14 10:49N 34°09' W 119°13'0 0.0
2017-Sep-14 09:14N 34°09' W 119°13'0 0.0
2017-Sep-14 03:46N 34°09' W 119°13'0 0.0
2017-Sep-14 03:04N 34°09' W 119°13'0 0.0
2017-Sep-14 02:56N 34°09' W 119°13'0 0.6
2017-Sep-14 02:30N 34°09' W 119°12'2 3.4
2017-Sep-14 01:58N 34°07' W 119°14'3 5.8
2017-Sep-14 01:30N 34°05' W 119°15'3 6.3
2017-Sep-14 01:00N 34°02' W 119°15'3 6.5
2017-Sep-14 00:30N 33°59' W 119°16'3 7.0
2017-Sep-14 00:00N 33°55' W 119°16'4 7.0
2017-Sep-13 23:30N 33°52' W 119°17'4 6.8
2017-Sep-13 22:58N 33°48' W 119°17'3 6.7
2017-Sep-13 22:30N 33°45' W 119°18'3 6.9
2017-Sep-13 22:00N 33°41' W 119°18'4 7.2
2017-Sep-13 21:30N 33°38' W 119°19'4 7.2
2017-Sep-13 21:00N 33°34' W 119°19'4 7.1
2017-Sep-13 20:30N 33°31' W 119°20'4 7.3
2017-Sep-13 20:00N 33°27' W 119°20'4 7.3
2017-Sep-13 19:30N 33°24' W 119°21'4 7.1
2017-Sep-13 19:00N 33°20' W 119°21'3 6.8
2017-Sep-13 18:30N 33°17' W 119°22'3 6.5
2017-Sep-13 17:59N 33°13' W 119°23'2 0.3
2017-Sep-13 12:06N 33°15' W 119°22'2 4.7
2017-Sep-13 11:42N 33°17' W 119°21'1 4.3
2017-Sep-13 11:26N 33°18' W 119°21'2 4.3
2017-Sep-13 11:00N 33°20' W 119°21'2 4.3
2017-Sep-13 10:30N 33°22' W 119°21'2 4.2
2017-Sep-13 10:00N 33°24' W 119°20'2 4.0
2017-Sep-13 09:30N 33°26' W 119°20'2 3.7
2017-Sep-13 09:00N 33°28' W 119°20'2 3.9
2017-Sep-13 08:30N 33°30' W 119°20'2 4.0
2017-Sep-13 08:00N 33°32' W 119°19'2 4.2
2017-Sep-13 07:30N 33°34' W 119°19'2 4.2
2017-Sep-13 07:00N 33°36' W 119°19'2 4.5
2017-Sep-13 06:30N 33°38' W 119°18'3 4.4
2017-Sep-13 05:54N 33°41' W 119°18'2 4.3
2017-Sep-13 05:30N 33°43' W 119°17'2 4.1
2017-Sep-13 05:00N 33°45' W 119°17'2 4.1
2017-Sep-13 04:30N 33°47' W 119°17'2 4.3
2017-Sep-13 04:00N 33°49' W 119°16'2 4.3
2017-Sep-13 03:30N 33°51' W 119°16'2 4.9
2017-Sep-13 03:00N 33°54' W 119°16'3 6.3
2017-Sep-13 02:30N 33°57' W 119°16'3 6.8
2017-Sep-13 02:00N 34°00' W 119°15'4 7.3
2017-Sep-13 01:30N 34°04' W 119°15'4 6.8
2017-Sep-13 00:55N 34°08' W 119°14'2 4.4
2017-Sep-13 00:30N 34°09' W 119°12'0 0.4
2017-Sep-12 23:59N 34°09' W 119°13'0 0.0
2017-Sep-12 23:28N 34°09' W 119°13'0 0.0
2017-Sep-12 22:56N 34°09' W 119°13'0 0.0
2017-Sep-12 22:30N 34°09' W 119°13'0 0.0
2017-Sep-12 22:00N 34°09' W 119°13'0 0.0
2017-Sep-12 21:29N 34°09' W 119°13'0 0.0
2017-Sep-12 21:00N 34°09' W 119°13'0 0.0
2017-Sep-12 20:25N 34°09' W 119°13'0 0.0
2017-Sep-12 19:57N 34°09' W 119°13'0 0.0
2017-Sep-12 19:26N 34°09' W 119°13'0 0.0
2017-Sep-12 19:00N 34°09' W 119°13'0 0.0
2017-Sep-12 18:27N 34°09' W 119°13'0 0.0
2017-Sep-12 17:56N 34°09' W 119°13'0 0.0
2017-Sep-12 17:29N 34°09' W 119°13'0 0.0
2017-Sep-12 16:58N 34°09' W 119°13'0 0.0
2017-Sep-12 16:30N 34°09' W 119°13'0 0.0
2017-Sep-12 16:00N 34°09' W 119°13'0 0.0
2017-Sep-12 15:25N 34°09' W 119°13'0 0.0
2017-Sep-12 15:00N 34°09' W 119°13'0 0.5
2017-Sep-12 14:29N 34°09' W 119°12'1 2.8
2017-Sep-12 14:00N 34°08' W 119°13'2 4.6
2017-Sep-12 13:30N 34°06' W 119°14'1 2.9
2017-Sep-12 13:00N 34°05' W 119°13'1 2.6
2017-Sep-12 12:30N 34°04' W 119°12'2 4.4
2017-Sep-12 12:00N 34°03' W 119°10'2 4.5
2017-Sep-12 11:30N 34°02' W 119°07'2 4.4
2017-Sep-12 10:58N 34°01' W 119°05'2 4.9
2017-Sep-12 10:30N 33°59' W 119°02'3 5.4
2017-Sep-12 10:00N 33°58' W 118°60'3 5.5
2017-Sep-12 09:30N 33°57' W 118°57'3 5.7
2017-Sep-12 09:00N 33°55' W 118°54'3 5.8
2017-Sep-12 08:30N 33°54' W 118°51'3 5.9
2017-Sep-12 08:00N 33°53' W 118°48'3 6.2
2017-Sep-12 07:30N 33°51' W 118°44'3 6.0
2017-Sep-12 07:00N 33°50' W 118°41'3 6.0
2017-Sep-12 06:30N 33°48' W 118°38'3 5.9
2017-Sep-12 06:00N 33°47' W 118°35'3 5.9
2017-Sep-12 05:30N 33°45' W 118°32'3 5.6
2017-Sep-12 05:00N 33°44' W 118°29'3 6.3
2017-Sep-12 04:30N 33°43' W 118°25'3 6.3
2017-Sep-12 04:00N 33°41' W 118°22'3 5.9
2017-Sep-12 03:30N 33°40' W 118°19'3 5.0
2017-Sep-12 03:00N 33°41' W 118°16'3 5.2
2017-Sep-12 02:30N 33°43' W 118°14'2 4.2
2017-Sep-12 02:00N 33°45' W 118°13'1 3.0
2017-Sep-12 01:30N 33°46' W 118°13'0 0.2
2017-Sep-12 01:00N 33°46' W 118°13'0 0.0
2017-Sep-12 00:30N 33°46' W 118°13'0 0.0
2017-Sep-12 00:00N 33°46' W 118°13'0 0.0
2017-Sep-11 23:30N 33°46' W 118°13'0 0.0
2017-Sep-11 23:00N 33°46' W 118°13'0 0.0
2017-Sep-11 22:30N 33°46' W 118°13'0 0.0
2017-Sep-11 22:00N 33°46' W 118°13'0 0.0
2017-Sep-11 21:30N 33°46' W 118°13'0 0.0
2017-Sep-11 21:00N 33°46' W 118°13'0 0.0
2017-Sep-11 20:30N 33°46' W 118°13'0 0.0
2017-Sep-11 20:00N 33°46' W 118°13'0 0.0
2017-Sep-11 19:30N 33°46' W 118°13'0 0.0
2017-Sep-11 19:00N 33°46' W 118°13'0 0.0
2017-Sep-11 18:30N 33°46' W 118°13'0 0.0
2017-Sep-11 18:00N 33°46' W 118°13'0 0.0
2017-Sep-11 17:30N 33°46' W 118°13'0 0.0
2017-Sep-11 17:00N 33°46' W 118°13'0 0.0
2017-Sep-11 16:30N 33°46' W 118°13'0 0.0
2017-Sep-11 16:00N 33°46' W 118°13'0 0.0
2017-Sep-11 15:29N 33°46' W 118°13'0 0.0
2017-Sep-11 14:55N 33°46' W 118°13'0 0.0
2017-Sep-11 14:30N 33°46' W 118°13'0 0.0
2017-Sep-11 13:58N 33°46' W 118°13'0 0.0
2017-Sep-11 13:21N 33°46' W 118°13'0 0.0
2017-Sep-11 12:59N 33°46' W 118°13'0 0.0
2017-Sep-11 12:29N 33°46' W 118°13'0 0.0
2017-Sep-11 11:58N 33°46' W 118°13'0 0.0
2017-Sep-11 11:30N 33°46' W 118°13'0 0.0
2017-Sep-11 10:59N 33°46' W 118°13'0 0.0
2017-Sep-11 10:30N 33°46' W 118°13'0 0.0
2017-Sep-11 10:00N 33°46' W 118°13'0 0.0
2017-Sep-11 08:57N 33°46' W 118°13'0 0.0
2017-Sep-11 08:28N 33°46' W 118°13'0 0.0
2017-Sep-11 07:23N 33°46' W 118°13'0 0.0
2017-Sep-11 06:13N 33°46' W 118°13'0 0.0
2017-Sep-11 06:00N 33°46' W 118°13'0 0.0
2017-Sep-11 05:27N 33°46' W 118°13'0 0.0
2017-Sep-11 05:00N 33°46' W 118°13'0 0.0
2017-Sep-11 04:31N 33°46' W 118°13'0 0.0
2017-Sep-11 04:00N 33°46' W 118°13'0 0.0
2017-Sep-11 03:30N 33°46' W 118°13'0 0.0
2017-Sep-11 03:00N 33°46' W 118°13'0 0.0
2017-Sep-11 02:30N 33°46' W 118°13'0 0.0
2017-Sep-11 02:00N 33°46' W 118°13'0 0.0
2017-Sep-11 01:30N 33°46' W 118°13'0 0.0
2017-Sep-11 01:00N 33°46' W 118°13'0 0.0
2017-Sep-11 00:30N 33°46' W 118°13'0 0.0
2017-Sep-11 00:00N 33°46' W 118°13'0 0.0
2017-Sep-10 23:30N 33°46' W 118°13'0 0.0
2017-Sep-10 23:00N 33°46' W 118°13'0 0.0
2017-Sep-10 22:30N 33°46' W 118°13'0 0.0
2017-Sep-10 22:00N 33°46' W 118°13'0 0.0
2017-Sep-10 21:30N 33°46' W 118°13'0 0.0
2017-Sep-10 21:00N 33°46' W 118°13'0 0.0
2017-Sep-10 20:30N 33°46' W 118°13'0 0.0
2017-Sep-10 20:00N 33°46' W 118°13'0 0.0
2017-Sep-10 19:30N 33°46' W 118°13'0 0.0
2017-Sep-10 19:00N 33°46' W 118°13'0 0.0
2017-Sep-10 18:28N 33°46' W 118°13'0 0.0
2017-Sep-10 17:59N 33°46' W 118°13'0 0.0
2017-Sep-10 17:30N 33°46' W 118°13'0 0.0
2017-Sep-10 17:00N 33°46' W 118°13'0 0.0
2017-Sep-10 16:30N 33°46' W 118°13'0 0.0
2017-Sep-10 16:00N 33°46' W 118°13'0 0.0
2017-Sep-10 15:30N 33°46' W 118°13'0 0.0
2017-Sep-10 15:00N 33°46' W 118°13'0 0.0
2017-Sep-10 14:00N 33°46' W 118°13'0 0.0
2017-Sep-10 13:30N 33°46' W 118°13'0 0.0
2017-Sep-10 13:00N 33°46' W 118°13'0 0.0
2017-Sep-10 12:30N 33°46' W 118°13'0 0.0
2017-Sep-10 12:01N 33°46' W 118°13'0 0.0
2017-Sep-10 11:30N 33°46' W 118°13'0 0.0
2017-Sep-10 11:00N 33°46' W 118°13'0 0.0
2017-Sep-10 10:30N 33°46' W 118°13'0 0.0
2017-Sep-10 10:00N 33°46' W 118°13'0 0.0
2017-Sep-10 09:30N 33°46' W 118°13'0 0.0
2017-Sep-10 09:01N 33°46' W 118°13'0 0.0
2017-Sep-10 08:31N 33°46' W 118°13'0 0.0
2017-Sep-10 08:00N 33°46' W 118°13'0 0.0
2017-Sep-10 07:31N 33°46' W 118°13'0 0.0
2017-Sep-10 07:00N 33°46' W 118°13'0 0.0
2017-Sep-10 06:26N 33°46' W 118°13'0 0.0
2017-Sep-10 06:00N 33°46' W 118°13'0 0.0
2017-Sep-10 05:27N 33°46' W 118°13'0 0.0
2017-Sep-10 05:00N 33°46' W 118°13'0 0.0
2017-Sep-10 03:55N 33°46' W 118°13'0 0.0
2017-Sep-10 03:13N 33°46' W 118°13'0 0.0
2017-Sep-10 02:56N 33°46' W 118°13'0 0.0
2017-Sep-10 02:30N 33°46' W 118°13'0 0.0
2017-Sep-10 02:00N 33°46' W 118°13'0 0.0
2017-Sep-10 01:30N 33°46' W 118°13'0 0.0
2017-Sep-10 01:00N 33°46' W 118°13'0 0.0
2017-Sep-10 00:30N 33°46' W 118°13'0 0.0
2017-Sep-10 00:00N 33°46' W 118°13'0 0.0
2017-Sep-09 23:30N 33°46' W 118°13'0 0.0
2017-Sep-09 23:00N 33°46' W 118°13'0 0.0
2017-Sep-09 22:30N 33°46' W 118°13'0 0.0
2017-Sep-09 22:00N 33°46' W 118°13'0 0.0
2017-Sep-09 21:30N 33°46' W 118°13'0 0.0
2017-Sep-09 21:00N 33°46' W 118°13'0 0.0
2017-Sep-09 20:30N 33°46' W 118°13'0 0.0
2017-Sep-09 20:00N 33°46' W 118°13'0 0.0
2017-Sep-09 19:30N 33°46' W 118°13'0 0.0
2017-Sep-09 19:00N 33°46' W 118°13'0 0.0
2017-Sep-09 18:30N 33°46' W 118°13'0 0.0
2017-Sep-09 18:00N 33°46' W 118°13'0 0.0
2017-Sep-09 17:30N 33°46' W 118°13'0 0.0
2017-Sep-09 17:00N 33°46' W 118°13'  
Track history (hours):
 
Tides and Currents Weather Stations Pressure Air Temp Water Temp Dewpoint Dewpoint Depression Visibility Wind Speed Wind Dir Waves Ship Positions

Seana C

Owner: Curtin Maritime Corp, long beach, CA. More information available from US FCC via Universal Licensing System and Coast Guard Vessel Documentation Center.

Last reported at 2017-Sep-19 16:29 UTC. Time now 2017-Sep-19 16:48 UTC.
Position N 33°46' W 118°13'.

Length 21 m; draft 3 m.

Type: Tug. MMSI: 367766860.

Date/timePositionNaut miles runAvg speedWind from/ knotsBaromVisibWave heightAir tempDewpointWater temp
2017-Sep-19 16:29N 33°46' W 118°13'0 0.0
2017-Sep-19 16:00N 33°46' W 118°13'3 6.8
2017-Sep-19 15:30N 33°43' W 118°14'5 9.1
2017-Sep-19 15:00N 33°41' W 118°19'21 9.5
2017-Sep-19 12:46N 33°51' W 118°42'3 9.2
2017-Sep-19 12:29N 33°52' W 118°45'4 9.2
2017-Sep-19 12:00N 33°54' W 118°49'5 9.2
2017-Sep-19 11:30N 33°56' W 118°54'5 9.1
2017-Sep-19 11:01N 33°58' W 118°59'5 9.4
2017-Sep-19 10:31N 34°01' W 119°04'5 9.5
2017-Sep-19 10:00N 34°03' W 119°09'5 9.9
2017-Sep-19 09:31N 34°05' W 119°14'5 9.7
2017-Sep-19 09:00N 34°07' W 119°20'510.3
2017-Sep-19 08:29N 34°09' W 119°26'510.0
2017-Sep-19 08:00N 34°10' W 119°32'5 9.5
2017-Sep-19 07:31N 34°12' W 119°37'5 9.1
2017-Sep-19 07:00N 34°14' W 119°42'4 8.8
2017-Sep-19 06:30N 34°15' W 119°47'5 9.1
2017-Sep-19 05:59N 34°17' W 119°52'4 9.1
2017-Sep-19 05:30N 34°19' W 119°57'5 9.1
2017-Sep-19 05:00N 34°20' W 120°02'5 9.1
2017-Sep-19 04:30N 34°21' W 120°08'4 6.5
2017-Sep-19 03:57N 34°22' W 120°12'3 5.7
2017-Sep-19 03:30N 34°23' W 120°15'2 4.5
2017-Sep-19 03:00N 34°24' W 120°17'2 5.0
2017-Sep-19 02:30N 34°22' W 120°15'4 7.6
2017-Sep-19 01:59N 34°20' W 120°11'4 8.3
2017-Sep-19 01:30N 34°19' W 120°07'4 8.1
2017-Sep-19 01:00N 34°17' W 120°02'5 8.9
2017-Sep-19 00:26N 34°16' W 119°56'4 9.2
2017-Sep-19 00:00N 34°15' W 119°52'5 9.1
2017-Sep-18 23:28N 34°14' W 119°46'4 9.6
2017-Sep-18 23:01N 34°12' W 119°41'5 9.3
2017-Sep-18 22:31N 34°11' W 119°35'5 8.9
2017-Sep-18 21:58N 34°10' W 119°30'4 8.8
2017-Sep-18 21:28N 34°09' W 119°25'4 8.6
2017-Sep-18 21:00N 34°07' W 119°20'5 8.9
2017-Sep-18 20:28N 34°05' W 119°15'4 9.0
2017-Sep-18 20:01N 34°03' W 119°10'5 9.0
2017-Sep-18 19:30N 34°01' W 119°06'4 9.2
2017-Sep-18 19:01N 33°59' W 119°01'5 9.2
2017-Sep-18 18:30N 33°57' W 118°56'5 9.3
2017-Sep-18 18:01N 33°55' W 118°51'5 9.4
2017-Sep-18 17:30N 33°53' W 118°46'5 9.4
2017-Sep-18 16:57N 33°50' W 118°40'18 9.1
2017-Sep-18 14:59N 33°42' W 118°21'4 8.5
2017-Sep-18 14:29N 33°42' W 118°16'5 0.5
2017-Sep-18 03:54N 33°46' W 118°13'0 0.0
2017-Sep-18 03:11N 33°46' W 118°13'0 0.0
2017-Sep-18 02:49N 33°46' W 118°13'0 0.0
2017-Sep-18 00:48N 33°46' W 118°13'0 0.0
2017-Sep-18 00:19N 33°46' W 118°13'0 0.0
2017-Sep-17 23:51N 33°46' W 118°13'0 0.0
2017-Sep-17 23:28N 33°46' W 118°13'0 0.0
2017-Sep-17 22:58N 33°46' W 118°13'0 0.0
2017-Sep-17 22:12N 33°46' W 118°13'0 0.0
2017-Sep-17 21:48N 33°46' W 118°13'0 0.0
2017-Sep-17 21:27N 33°46' W 118°13'0 0.0
2017-Sep-17 21:00N 33°46' W 118°13'0 0.0
2017-Sep-17 20:11N 33°46' W 118°13'0 0.0
2017-Sep-17 19:57N 33°46' W 118°13'0 0.0
2017-Sep-17 18:58N 33°46' W 118°13'2 4.8
2017-Sep-17 18:30N 33°44' W 118°13'3 1.7
2017-Sep-17 16:58N 33°44' W 118°16'2 4.2
2017-Sep-17 16:30N 33°43' W 118°14'3 6.2
2017-Sep-17 15:58N 33°46' W 118°13'0 0.0
2017-Sep-15 14:18N 33°46' W 118°13'0 0.0
2017-Sep-15 13:59N 33°46' W 118°13'0 0.1
2017-Sep-15 13:30N 33°46' W 118°13'0 0.0
2017-Sep-15 12:59N 33°46' W 118°13'0 0.0
2017-Sep-15 12:29N 33°46' W 118°13'0 0.0
2017-Sep-15 11:59N 33°46' W 118°13'0 0.0
2017-Sep-15 11:29N 33°46' W 118°13'0 0.0
2017-Sep-15 11:00N 33°46' W 118°13'0 0.0
2017-Sep-15 10:30N 33°46' W 118°13'0 0.0
2017-Sep-15 10:00N 33°46' W 118°13'0 0.0
2017-Sep-15 09:30N 33°46' W 118°13'0 0.0
2017-Sep-15 09:00N 33°46' W 118°13'0 0.0
2017-Sep-15 08:30N 33°46' W 118°13'0 0.0
2017-Sep-15 08:00N 33°46' W 118°13'0 0.0
2017-Sep-15 07:30N 33°46' W 118°13'0 0.1
2017-Sep-15 07:00N 33°46' W 118°13'0 0.1
2017-Sep-15 06:30N 33°46' W 118°13'0 0.0
2017-Sep-15 06:00N 33°46' W 118°13'0 0.0
2017-Sep-15 05:30N 33°46' W 118°13'0 0.0
2017-Sep-15 05:00N 33°46' W 118°13'0 0.0
2017-Sep-15 04:22N 33°46' W 118°13'0 0.0
2017-Sep-15 01:30N 33°46' W 118°13'0 0.1
2017-Sep-15 01:00N 33°46' W 118°13'0 0.0
2017-Sep-15 00:30N 33°46' W 118°13'0 0.1
2017-Sep-15 00:00N 33°46' W 118°13'0 0.1
2017-Sep-14 23:30N 33°46' W 118°13'0 0.3
2017-Sep-14 23:00N 33°46' W 118°13'1 1.6
2017-Sep-14 22:30N 33°46' W 118°13'2 4.8
2017-Sep-14 22:00N 33°43' W 118°14'3 6.5
2017-Sep-14 21:30N 33°41' W 118°16'23 7.4
2017-Sep-14 18:25N 33°50' W 118°41'4 7.4
2017-Sep-14 17:56N 33°52' W 118°45'3 7.2
2017-Sep-14 17:30N 33°53' W 118°48'4 7.4
2017-Sep-14 17:00N 33°55' W 118°52'4 7.5
2017-Sep-14 16:30N 33°57' W 118°56'4 7.8
2017-Sep-14 16:00N 33°58' W 119°01'4 7.7
2017-Sep-14 15:30N 34°00' W 119°05'4 7.4
2017-Sep-14 15:00N 34°02' W 119°09'4 7.3
2017-Sep-14 14:30N 34°04' W 119°12'5 5.1
2017-Sep-14 13:29N 34°09' W 119°12'0 0.2
2017-Sep-14 12:08N 34°09' W 119°13'0 0.0
2017-Sep-14 10:49N 34°09' W 119°13'0 0.0
2017-Sep-14 09:14N 34°09' W 119°13'0 0.0
2017-Sep-14 03:46N 34°09' W 119°13'0 0.0
2017-Sep-14 03:04N 34°09' W 119°13'0 0.0
2017-Sep-14 02:56N 34°09' W 119°13'0 0.6
2017-Sep-14 02:30N 34°09' W 119°12'2 3.4
2017-Sep-14 01:58N 34°07' W 119°14'3 5.8
2017-Sep-14 01:30N 34°05' W 119°15'3 6.3
2017-Sep-14 01:00N 34°02' W 119°15'3 6.5
2017-Sep-14 00:30N 33°59' W 119°16'3 7.0
2017-Sep-14 00:00N 33°55' W 119°16'4 7.0
2017-Sep-13 23:30N 33°52' W 119°17'4 6.8
2017-Sep-13 22:58N 33°48' W 119°17'3 6.7
2017-Sep-13 22:30N 33°45' W 119°18'3 6.9
2017-Sep-13 22:00N 33°41' W 119°18'4 7.2
2017-Sep-13 21:30N 33°38' W 119°19'4 7.2
2017-Sep-13 21:00N 33°34' W 119°19'4 7.1
2017-Sep-13 20:30N 33°31' W 119°20'4 7.3
2017-Sep-13 20:00N 33°27' W 119°20'4 7.3
2017-Sep-13 19:30N 33°24' W 119°21'4 7.1
2017-Sep-13 19:00N 33°20' W 119°21'3 6.8
2017-Sep-13 18:30N 33°17' W 119°22'3 6.5
2017-Sep-13 17:59N 33°13' W 119°23'2 0.3
2017-Sep-13 12:06N 33°15' W 119°22'2 4.7
2017-Sep-13 11:42N 33°17' W 119°21'1 4.3
2017-Sep-13 11:26N 33°18' W 119°21'2 4.3
2017-Sep-13 11:00N 33°20' W 119°21'2 4.3
2017-Sep-13 10:30N 33°22' W 119°21'2 4.2
2017-Sep-13 10:00N 33°24' W 119°20'2 4.0
2017-Sep-13 09:30N 33°26' W 119°20'2 3.7
2017-Sep-13 09:00N 33°28' W 119°20'2 3.9
2017-Sep-13 08:30N 33°30' W 119°20'2 4.0
2017-Sep-13 08:00N 33°32' W 119°19'2 4.2
2017-Sep-13 07:30N 33°34' W 119°19'2 4.2
2017-Sep-13 07:00N 33°36' W 119°19'2 4.5
2017-Sep-13 06:30N 33°38' W 119°18'3 4.4
2017-Sep-13 05:54N 33°41' W 119°18'2 4.3
2017-Sep-13 05:30N 33°43' W 119°17'2 4.1
2017-Sep-13 05:00N 33°45' W 119°17'2 4.1
2017-Sep-13 04:30N 33°47' W 119°17'2 4.3
2017-Sep-13 04:00N 33°49' W 119°16'2 4.3
2017-Sep-13 03:30N 33°51' W 119°16'2 4.9
2017-Sep-13 03:00N 33°54' W 119°16'3 6.3
2017-Sep-13 02:30N 33°57' W 119°16'3 6.8
2017-Sep-13 02:00N 34°00' W 119°15'4 7.3
2017-Sep-13 01:30N 34°04' W 119°15'4 6.8
2017-Sep-13 00:55N 34°08' W 119°14'2 4.4
2017-Sep-13 00:30N 34°09' W 119°12'0 0.4
2017-Sep-12 23:59N 34°09' W 119°13'0 0.0
2017-Sep-12 23:28N 34°09' W 119°13'0 0.0
2017-Sep-12 22:56N 34°09' W 119°13'0 0.0
2017-Sep-12 22:30N 34°09' W 119°13'0 0.0
2017-Sep-12 22:00N 34°09' W 119°13'0 0.0
2017-Sep-12 21:29N 34°09' W 119°13'0 0.0
2017-Sep-12 21:00N 34°09' W 119°13'0 0.0
2017-Sep-12 20:25N 34°09' W 119°13'0 0.0
2017-Sep-12 19:57N 34°09' W 119°13'0 0.0
2017-Sep-12 19:26N 34°09' W 119°13'0 0.0
2017-Sep-12 19:00N 34°09' W 119°13'0 0.0
2017-Sep-12 18:27N 34°09' W 119°13'0 0.0
2017-Sep-12 17:56N 34°09' W 119°13'0 0.0
2017-Sep-12 17:29N 34°09' W 119°13'0 0.0
2017-Sep-12 16:58N 34°09' W 119°13'0 0.0
2017-Sep-12 16:30N 34°09' W 119°13'0 0.0
2017-Sep-12 16:00N 34°09' W 119°13'0 0.0
2017-Sep-12 15:25N 34°09' W 119°13'0 0.0
2017-Sep-12 15:00N 34°09' W 119°13'0 0.5
2017-Sep-12 14:29N 34°09' W 119°12'1 2.8
2017-Sep-12 14:00N 34°08' W 119°13'2 4.6
2017-Sep-12 13:30N 34°06' W 119°14'1 2.9
2017-Sep-12 13:00N 34°05' W 119°13'1 2.6
2017-Sep-12 12:30N 34°04' W 119°12'2 4.4
2017-Sep-12 12:00N 34°03' W 119°10'2 4.5
2017-Sep-12 11:30N 34°02' W 119°07'2 4.4
2017-Sep-12 10:58N 34°01' W 119°05'2 4.9
2017-Sep-12 10:30N 33°59' W 119°02'3 5.4
2017-Sep-12 10:00N 33°58' W 118°60'3 5.5
2017-Sep-12 09:30N 33°57' W 118°57'3 5.7
2017-Sep-12 09:00N 33°55' W 118°54'3 5.8
2017-Sep-12 08:30N 33°54' W 118°51'3 5.9
2017-Sep-12 08:00N 33°53' W 118°48'3 6.2
2017-Sep-12 07:30N 33°51' W 118°44'3 6.0
2017-Sep-12 07:00N 33°50' W 118°41'3 6.0
2017-Sep-12 06:30N 33°48' W 118°38'3 5.9
2017-Sep-12 06:00N 33°47' W 118°35'3 5.9
2017-Sep-12 05:30N 33°45' W 118°32'3 5.6
2017-Sep-12 05:00N 33°44' W 118°29'3 6.3
2017-Sep-12 04:30N 33°43' W 118°25'3 6.3
2017-Sep-12 04:00N 33°41' W 118°22'3 5.9
2017-Sep-12 03:30N 33°40' W 118°19'3 5.0
2017-Sep-12 03:00N 33°41' W 118°16'3 5.2
2017-Sep-12 02:30N 33°43' W 118°14'2 4.2
2017-Sep-12 02:00N 33°45' W 118°13'1 3.0
2017-Sep-12 01:30N 33°46' W 118°13'0 0.2
2017-Sep-12 01:00N 33°46' W 118°13'0 0.0
2017-Sep-12 00:30N 33°46' W 118°13'0 0.0
2017-Sep-12 00:00N 33°46' W 118°13'0 0.0
2017-Sep-11 23:30N 33°46' W 118°13'0 0.0
2017-Sep-11 23:00N 33°46' W 118°13'0 0.0
2017-Sep-11 22:30N 33°46' W 118°13'0 0.0
2017-Sep-11 22:00N 33°46' W 118°13'0 0.0
2017-Sep-11 21:30N 33°46' W 118°13'0 0.0
2017-Sep-11 21:00N 33°46' W 118°13'0 0.0
2017-Sep-11 20:30N 33°46' W 118°13'0 0.0
2017-Sep-11 20:00N 33°46' W 118°13'0 0.0
2017-Sep-11 19:30N 33°46' W 118°13'0 0.0
2017-Sep-11 19:00N 33°46' W 118°13'0 0.0
2017-Sep-11 18:30N 33°46' W 118°13'0 0.0
2017-Sep-11 18:00N 33°46' W 118°13'0 0.0
2017-Sep-11 17:30N 33°46' W 118°13'0 0.0
2017-Sep-11 17:00N 33°46' W 118°13'0 0.0
2017-Sep-11 16:30N 33°46' W 118°13'0 0.0
2017-Sep-11 16:00N 33°46' W 118°13'0 0.0
2017-Sep-11 15:29N 33°46' W 118°13'0 0.0
2017-Sep-11 14:55N 33°46' W 118°13'0 0.0
2017-Sep-11 14:30N 33°46' W 118°13'0 0.0
2017-Sep-11 13:58N 33°46' W 118°13'0 0.0
2017-Sep-11 13:21N 33°46' W 118°13'0 0.0
2017-Sep-11 12:59N 33°46' W 118°13'0 0.0
2017-Sep-11 12:29N 33°46' W 118°13'0 0.0
2017-Sep-11 11:58N 33°46' W 118°13'0 0.0
2017-Sep-11 11:30N 33°46' W 118°13'0 0.0
2017-Sep-11 10:59N 33°46' W 118°13'0 0.0
2017-Sep-11 10:30N 33°46' W 118°13'0 0.0
2017-Sep-11 10:00N 33°46' W 118°13'0 0.0
2017-Sep-11 08:57N 33°46' W 118°13'0 0.0
2017-Sep-11 08:28N 33°46' W 118°13'0 0.0
2017-Sep-11 07:23N 33°46' W 118°13'0 0.0
2017-Sep-11 06:13N 33°46' W 118°13'0 0.0
2017-Sep-11 06:00N 33°46' W 118°13'0 0.0
2017-Sep-11 05:27N 33°46' W 118°13'0 0.0
2017-Sep-11 05:00N 33°46' W 118°13'0 0.0
2017-Sep-11 04:31N 33°46' W 118°13'0 0.0
2017-Sep-11 04:00N 33°46' W 118°13'0 0.0
2017-Sep-11 03:30N 33°46' W 118°13'0 0.0
2017-Sep-11 03:00N 33°46' W 118°13'0 0.0
2017-Sep-11 02:30N 33°46' W 118°13'0 0.0
2017-Sep-11 02:00N 33°46' W 118°13'0 0.0
2017-Sep-11 01:30N 33°46' W 118°13'0 0.0
2017-Sep-11 01:00N 33°46' W 118°13'0 0.0
2017-Sep-11 00:30N 33°46' W 118°13'0 0.0
2017-Sep-11 00:00N 33°46' W 118°13'0 0.0
2017-Sep-10 23:30N 33°46' W 118°13'0 0.0
2017-Sep-10 23:00N 33°46' W 118°13'0 0.0
2017-Sep-10 22:30N 33°46' W 118°13'0 0.0
2017-Sep-10 22:00N 33°46' W 118°13'0 0.0
2017-Sep-10 21:30N 33°46' W 118°13'0 0.0
2017-Sep-10 21:00N 33°46' W 118°13'0 0.0
2017-Sep-10 20:30N 33°46' W 118°13'0 0.0
2017-Sep-10 20:00N 33°46' W 118°13'0 0.0
2017-Sep-10 19:30N 33°46' W 118°13'0 0.0
2017-Sep-10 19:00N 33°46' W 118°13'0 0.0
2017-Sep-10 18:28N 33°46' W 118°13'0 0.0
2017-Sep-10 17:59N 33°46' W 118°13'0 0.0
2017-Sep-10 17:30N 33°46' W 118°13'0 0.0
2017-Sep-10 17:00N 33°46' W 118°13'0 0.0
2017-Sep-10 16:30N 33°46' W 118°13'0 0.0
2017-Sep-10 16:00N 33°46' W 118°13'0 0.0
2017-Sep-10 15:30N 33°46' W 118°13'0 0.0
2017-Sep-10 15:00N 33°46' W 118°13'0 0.0
2017-Sep-10 14:00N 33°46' W 118°13'0 0.0
2017-Sep-10 13:30N 33°46' W 118°13'0 0.0
2017-Sep-10 13:00N 33°46' W 118°13'0 0.0
2017-Sep-10 12:30N 33°46' W 118°13'0 0.0
2017-Sep-10 12:01N 33°46' W 118°13'0 0.0
2017-Sep-10 11:30N 33°46' W 118°13'0 0.0
2017-Sep-10 11:00N 33°46' W 118°13'0 0.0
2017-Sep-10 10:30N 33°46' W 118°13'0 0.0
2017-Sep-10 10:00N 33°46' W 118°13'0 0.0
2017-Sep-10 09:30N 33°46' W 118°13'0 0.0
2017-Sep-10 09:01N 33°46' W 118°13'0 0.0
2017-Sep-10 08:31N 33°46' W 118°13'0 0.0
2017-Sep-10 08:00N 33°46' W 118°13'0 0.0
2017-Sep-10 07:31N 33°46' W 118°13'0 0.0
2017-Sep-10 07:00N 33°46' W 118°13'0 0.0
2017-Sep-10 06:26N 33°46' W 118°13'0 0.0
2017-Sep-10 06:00N 33°46' W 118°13'0 0.0
2017-Sep-10 05:27N 33°46' W 118°13'0 0.0
2017-Sep-10 05:00N 33°46' W 118°13'0 0.0
2017-Sep-10 03:55N 33°46' W 118°13'0 0.0
2017-Sep-10 03:13N 33°46' W 118°13'0 0.0
2017-Sep-10 02:56N 33°46' W 118°13'0 0.0
2017-Sep-10 02:30N 33°46' W 118°13'0 0.0
2017-Sep-10 02:00N 33°46' W 118°13'0 0.0
2017-Sep-10 01:30N 33°46' W 118°13'0 0.0
2017-Sep-10 01:00N 33°46' W 118°13'0 0.0
2017-Sep-10 00:30N 33°46' W 118°13'0 0.0
2017-Sep-10 00:00N 33°46' W 118°13'0 0.0
2017-Sep-09 23:30N 33°46' W 118°13'0 0.0
2017-Sep-09 23:00N 33°46' W 118°13'0 0.0
2017-Sep-09 22:30N 33°46' W 118°13'0 0.0
2017-Sep-09 22:00N 33°46' W 118°13'0 0.0
2017-Sep-09 21:30N 33°46' W 118°13'0 0.0
2017-Sep-09 21:00N 33°46' W 118°13'0 0.0
2017-Sep-09 20:30N 33°46' W 118°13'0 0.0
2017-Sep-09 20:00N 33°46' W 118°13'0 0.0
2017-Sep-09 19:30N 33°46' W 118°13'0 0.0
2017-Sep-09 19:00N 33°46' W 118°13'0 0.0
2017-Sep-09 18:30N 33°46' W 118°13'0 0.0
2017-Sep-09 18:00N 33°46' W 118°13'0 0.0
2017-Sep-09 17:30N 33°46' W 118°13'0 0.0
2017-Sep-09 17:00N 33°46' W 118°13'  

Dump ship's entire track history